Time;durP1;ratioP1;P1;durP2;ratioP2;P2;SDS_P1;SDS_P2;PMS_P1;PMS_P2;Temp;Humidity;BMP_temperature;BMP_pressure;BME280_temperature;BME280_humidity;BME280_pressure;Samples;Min_cycle;Max_cycle;Signal;HPM_P1;HPM_P2
2022/02/17 08:00:28;;;;;;;3.50;1.93;;;10.00;99.90;;;;;;5132700;27;20292;-77
2022/02/17 08:02:53;;;;;;;0.90;0.90;;;10.40;99.90;;;;;;5131244;28;20178;-77
2022/02/17 08:05:19;;;;;;;1.43;1.00;;;10.50;99.90;;;;;;5132529;27;20163;-77
2022/02/17 08:07:45;;;;;;;0.73;0.73;;;10.70;99.90;;;;;;5132708;27;20177;-77
2022/02/17 08:10:10;;;;;;;0.80;0.80;;;10.50;99.90;;;;;;5133646;27;20197;-78
2022/02/17 08:12:43;;;;;;;0.80;0.80;;;10.50;99.90;;;;;;5132571;28;20239;-78
2022/02/17 08:15:10;;;;;;;1.73;0.70;;;10.40;99.90;;;;;;5134349;27;20171;-77
2022/02/17 08:17:36;;;;;;;1.00;0.90;;;10.40;99.90;;;;;;5134952;28;20194;-80
2022/02/17 08:20:03;;;;;;;0.70;0.70;;;10.40;99.90;;;;;;5136252;27;20566;-77
2022/02/17 08:22:28;;;;;;;1.40;0.93;;;10.40;99.90;;;;;;5141851;27;20167;-77
2022/02/17 08:24:54;;;;;;;0.90;0.90;;;10.40;99.90;;;;;;5138209;27;20191;-77
2022/02/17 08:27:20;;;;;;;1.23;0.83;;;10.40;99.90;;;;;;5139010;27;20258;-77
2022/02/17 08:29:45;;;;;;;2.20;1.07;;;10.50;99.90;;;;;;5136547;27;20668;-78
2022/02/17 08:32:11;;;;;;;1.70;0.90;;;10.50;99.90;;;;;;5136105;27;20168;-78
2022/02/17 08:34:36;;;;;;;0.60;0.60;;;10.40;99.90;;;;;;5134522;28;20167;-78
2022/02/17 08:37:02;;;;;;;0.60;0.60;;;10.40;99.90;;;;;;5136073;27;20522;-78
2022/02/17 08:39:28;;;;;;;0.80;0.80;;;10.40;99.90;;;;;;5135688;27;20210;-77
2022/02/17 08:41:54;;;;;;;0.90;0.77;;;10.40;99.90;;;;;;5136583;27;20527;-79
2022/02/17 08:44:19;;;;;;;2.10;0.80;;;10.30;99.90;;;;;;5134295;28;20179;-79
2022/02/17 08:46:46;;;;;;;0.67;0.67;;;10.20;99.90;;;;;;5135497;28;20175;-78
2022/02/17 08:49:12;;;;;;;0.70;0.70;;;10.30;99.90;;;;;;5133336;28;20680;-78
2022/02/17 08:51:38;;;;;;;1.20;1.10;;;10.30;99.90;;;;;;5132915;27;20186;-78
2022/02/17 08:54:04;;;;;;;1.30;1.20;;;10.30;99.90;;;;;;5133952;27;20227;-78
2022/02/17 08:56:30;;;;;;;0.70;0.70;;;10.20;99.90;;;;;;5136677;27;20254;-78
2022/02/17 08:58:57;;;;;;;1.43;0.90;;;10.20;99.90;;;;;;5132388;27;20234;-78
2022/02/17 09:01:22;;;;;;;0.60;0.60;;;10.20;99.90;;;;;;5134538;27;20641;-78
2022/02/17 09:03:48;;;;;;;1.37;1.07;;;10.10;99.90;;;;;;5135981;27;20184;-78
2022/02/17 09:06:14;;;;;;;1.73;0.80;;;10.10;99.90;;;;;;5136722;28;20182;-78
2022/02/17 09:08:40;;;;;;;0.70;0.70;;;9.90;99.90;;;;;;5137733;27;20171;-79
2022/02/17 09:11:06;;;;;;;0.70;0.70;;;9.90;99.90;;;;;;5126142;27;20197;-78
2022/02/17 09:13:32;;;;;;;0.70;0.70;;;10.10;99.90;;;;;;5122355;28;20199;-78
2022/02/17 09:15:58;;;;;;;0.57;0.57;;;10.20;99.90;;;;;;5123888;28;20179;-79
2022/02/17 09:18:24;;;;;;;1.07;0.97;;;10.40;99.90;;;;;;5123601;28;20191;-79
2022/02/17 09:20:50;;;;;;;0.60;0.60;;;10.40;99.90;;;;;;5120970;28;20195;-79
2022/02/17 09:23:16;;;;;;;0.73;0.73;;;10.50;99.90;;;;;;5124423;28;20164;-79
2022/02/17 09:25:42;;;;;;;0.70;0.70;;;10.70;99.90;;;;;;5121950;28;20175;-79
2022/02/17 09:28:09;;;;;;;0.70;0.70;;;10.60;99.90;;;;;;5122621;28;20171;-79
2022/02/17 09:30:36;;;;;;;1.03;0.97;;;10.50;99.90;;;;;;5117886;28;20248;-79
2022/02/17 09:33:02;;;;;;;0.77;0.77;;;10.40;99.90;;;;;;5120876;28;20189;-78
2022/02/17 09:35:29;;;;;;;1.67;1.33;;;10.40;99.90;;;;;;5119190;28;20709;-79
2022/02/17 09:37:54;;;;;;;0.80;0.80;;;10.60;99.90;;;;;;5122520;28;20250;-78
2022/02/17 09:40:22;;;;;;;0.70;0.70;;;10.60;99.90;;;;;;5123727;28;20242;-79
2022/02/17 09:42:48;;;;;;;0.80;0.80;;;10.60;99.90;;;;;;5121323;28;20211;-78
2022/02/17 09:45:14;;;;;;;0.90;0.90;;;10.70;99.90;;;;;;5121040;28;20207;-78
2022/02/17 09:47:41;;;;;;;0.50;0.50;;;11.10;99.90;;;;;;5122066;28;20206;-78
2022/02/17 09:50:10;;;;;;;1.70;0.70;;;11.10;99.90;;;;;;5123590;28;20241;-78
2022/02/17 09:52:37;;;;;;;1.43;1.07;;;10.70;99.90;;;;;;5126199;28;20172;-79
2022/02/17 09:55:06;;;;;;;0.80;0.80;;;10.50;99.90;;;;;;5125980;28;20180;-78
2022/02/17 09:57:32;;;;;;;1.00;0.90;;;10.30;99.90;;;;;;5123515;28;20175;-78
2022/02/17 09:59:59;;;;;;;0.90;0.90;;;10.20;99.90;;;;;;5122479;28;20214;-78
2022/02/17 10:02:26;;;;;;;0.60;0.60;;;10.20;99.90;;;;;;5123782;28;20167;-79
2022/02/17 10:04:56;;;;;;;0.97;0.93;;;10.20;99.90;;;;;;5122595;28;20172;-78
2022/02/17 10:07:33;;;;;;;2.93;0.80;;;10.20;99.90;;;;;;5119878;28;20179;-78
2022/02/17 10:10:15;;;;;;;1.00;0.93;;;10.30;99.90;;;;;;5120155;28;20191;-78
2022/02/17 10:12:53;;;;;;;1.67;1.37;;;10.40;99.90;;;;;;5124836;28;20180;-78
2022/02/17 10:15:38;;;;;;;1.60;1.20;;;10.40;99.90;;;;;;5121582;28;20617;-79
2022/02/17 10:18:12;;;;;;;1.40;1.20;;;10.40;99.90;;;;;;5123778;28;20177;-78
2022/02/17 10:20:50;;;;;;;0.80;0.80;;;10.40;99.90;;;;;;5127883;28;20187;-79
2022/02/17 10:23:16;;;;;;;2.07;1.50;;;10.40;99.90;;;;;;5131855;28;20238;-79
2022/02/17 10:25:57;;;;;;;1.07;0.87;;;10.40;99.90;;;;;;5129957;28;20175;-79
2022/02/17 10:28:23;;;;;;;2.50;1.37;;;10.40;99.90;;;;;;5120831;28;20229;-79
2022/02/17 10:30:48;;;;;;;2.73;1.30;;;10.30;99.90;;;;;;5120212;28;20200;-79
2022/02/17 10:33:14;;;;;;;2.60;1.30;;;10.20;99.90;;;;;;5123621;28;20175;-79
2022/02/17 10:35:54;;;;;;;2.40;1.30;;;9.90;99.90;;;;;;5122335;28;20171;-79
2022/02/17 10:38:20;;;;;;;1.87;1.30;;;9.50;99.90;;;;;;5126541;28;20234;-79
2022/02/17 10:40:52;;;;;;;1.40;1.20;;;9.30;99.90;;;;;;5133622;28;20199;-78
2022/02/17 10:43:18;;;;;;;1.73;1.60;;;9.20;99.90;;;;;;5123146;28;20176;-78
2022/02/17 10:45:47;;;;;;;3.70;2.33;;;9.10;99.90;;;;;;5122207;28;20175;-79
2022/02/17 10:48:19;;;;;;;3.40;1.77;;;9.20;99.90;;;;;;5119350;28;20630;-80
2022/02/17 10:51:12;;;;;;;2.73;2.40;;;9.20;99.90;;;;;;5123828;28;20196;-78
2022/02/17 10:53:43;;;;;;;2.63;1.30;;;9.40;99.90;;;;;;5114093;28;20183;-78
2022/02/17 10:56:15;;;;;;;2.87;2.40;;;9.70;99.90;;;;;;5116277;28;20182;-78
2022/02/17 10:58:46;;;;;;;1.73;1.50;;;10.10;99.90;;;;;;5121714;28;20214;-79
2022/02/17 11:01:13;;;;;;;2.17;1.50;;;10.10;99.90;;;;;;5118694;28;20266;-78
2022/02/17 11:03:39;;;;;;;4.80;1.63;;;10.10;99.90;;;;;;5116900;28;20172;-77
2022/02/17 11:06:07;;;;;;;3.00;1.40;;;10.10;99.90;;;;;;5118292;27;20203;-78
2022/02/17 11:08:32;;;;;;;1.67;1.20;;;10.20;99.90;;;;;;5117373;28;20657;-78
2022/02/17 11:10:59;;;;;;;1.97;1.17;;;10.20;99.90;;;;;;5118365;28;20198;-78
2022/02/17 11:13:26;;;;;;;2.03;1.10;;;10.10;99.90;;;;;;5121813;28;20175;-78
2022/02/17 11:15:56;;;;;;;2.47;1.47;;;10.40;99.90;;;;;;5116065;28;20205;-78
2022/02/17 11:18:23;;;;;;;2.43;1.20;;;10.50;99.90;;;;;;5117774;28;20183;-78
2022/02/17 11:20:51;;;;;;;1.17;0.97;;;10.50;99.90;;;;;;5120582;28;20761;-78
2022/02/17 11:23:19;;;;;;;1.43;0.80;;;10.20;99.90;;;;;;5116962;28;20179;-78
2022/02/17 11:25:45;;;;;;;3.50;1.20;;;9.90;99.90;;;;;;5116906;28;20175;-78
2022/02/17 11:28:13;;;;;;;2.57;1.20;;;9.80;99.90;;;;;;5117633;28;20229;-78
2022/02/17 11:30:42;;;;;;;4.53;1.37;;;9.70;99.90;;;;;;5117548;28;20195;-78
2022/02/17 11:33:13;;;;;;;1.87;1.30;;;9.70;99.90;;;;;;5116625;28;20192;-78
2022/02/17 11:35:39;;;;;;;5.60;1.80;;;9.80;99.90;;;;;;5114986;28;20176;-78
2022/02/17 11:38:32;;;;;;;2.30;1.30;;;10.10;99.90;;;;;;5116760;28;20690;-78
2022/02/17 11:41:08;;;;;;;3.23;1.07;;;10.10;99.90;;;;;;5099577;28;20164;-78
2022/02/17 11:43:36;;;;;;;2.63;2.10;;;10.20;99.90;;;;;;5117564;28;20238;-78
2022/02/17 11:46:02;;;;;;;5.30;2.00;;;10.40;99.90;;;;;;5118291;28;20231;-78
2022/02/17 11:48:41;;;;;;;8.57;2.40;;;10.10;99.90;;;;;;5118628;28;20194;-79
2022/02/17 11:51:25;;;;;;;5.20;2.03;;;10.00;99.90;;;;;;5117906;28;20164;-79
2022/02/17 11:54:14;;;;;;;5.93;2.10;;;10.10;99.90;;;;;;5119847;28;20254;-78
2022/02/17 11:56:44;;;;;;;4.47;2.37;;;10.00;99.90;;;;;;5115761;28;20175;-78
2022/02/17 11:59:35;;;;;;;3.13;1.83;;;10.00;99.90;;;;;;5115784;28;20213;-78
2022/02/17 12:02:03;;;;;;;4.90;2.27;;;10.00;99.90;;;;;;5115224;28;20144;-77
2022/02/17 12:04:32;;;;;;;4.60;1.63;;;9.90;99.90;;;;;;5113880;28;20180;-78
2022/02/17 12:07:01;;;;;;;6.53;2.90;;;9.80;99.90;;;;;;5115015;28;20179;-77
2022/02/17 12:09:47;;;;;;;7.27;1.80;;;9.70;99.90;;;;;;5113848;28;20210;-79
2022/02/17 12:12:13;;;;;;;3.17;2.10;;;9.60;99.90;;;;;;5113726;28;20199;-77
2022/02/17 12:15:00;;;;;;;5.87;2.47;;;9.70;99.90;;;;;;5115139;28;20167;-77
2022/02/17 12:17:31;;;;;;;3.93;1.90;;;9.80;99.90;;;;;;5115136;28;20156;-78
2022/02/17 12:20:05;;;;;;;7.40;2.90;;;9.70;99.90;;;;;;5113248;28;20235;-78
2022/02/17 12:22:31;;;;;;;8.80;4.17;;;9.70;99.90;;;;;;5113142;28;20178;-78
2022/02/17 12:25:21;;;;;;;6.33;3.00;;;9.70;99.90;;;;;;5116803;28;20168;-78
2022/02/17 12:28:02;;;;;;;5.10;3.80;;;9.80;99.90;;;;;;5117802;28;20167;-79
2022/02/17 12:30:34;;;;;;;8.50;4.50;;;10.10;99.90;;;;;;5115583;28;20203;-78
2022/02/17 12:33:15;;;;;;;3.00;1.70;;;10.50;99.90;;;;;;5117693;28;20176;-78
2022/02/17 12:36:00;;;;;;;2.30;1.43;;;11.60;99.90;;;;;;5114189;28;20159;-78
2022/02/17 12:38:31;;;;;;;2.83;1.47;;;13.10;99.90;;;;;;5115502;28;20575;-78
2022/02/17 12:40:57;;;;;;;3.20;1.07;;;12.50;99.90;;;;;;5116186;28;20171;-77
2022/02/17 12:43:28;;;;;;;3.17;1.43;;;11.80;99.90;;;;;;5117049;28;20263;-78
2022/02/17 12:45:55;;;;;;;3.27;2.13;;;11.50;99.90;;;;;;5116838;28;20570;-78
2022/02/17 12:48:21;;;;;;;4.27;1.50;;;11.50;99.90;;;;;;5122390;28;20176;-78
2022/02/17 12:50:47;;;;;;;3.83;1.50;;;11.50;99.90;;;;;;5119509;28;20200;-78
2022/02/17 12:53:13;;;;;;;4.60;2.00;;;11.50;99.90;;;;;;5121183;28;20268;-77
2022/02/17 12:55:45;;;;;;;4.90;1.50;;;11.30;99.90;;;;;;5120577;28;20172;-78
2022/02/17 12:58:25;;;;;;;3.37;1.67;;;11.50;99.90;;;;;;5120950;28;20613;-78
2022/02/17 13:00:51;;;;;;;3.10;1.03;;;11.70;99.90;;;;;;5121049;28;20558;-78
2022/02/17 13:03:16;;;;;;;2.43;1.30;;;12.40;99.90;;;;;;5120288;28;20167;-78
2022/02/17 13:06:17;;;;;;;2.53;1.03;;;12.80;99.90;;;;;;5120856;28;20202;-78
2022/02/17 13:08:36;;;;;;;1.37;0.90;;;13.60;99.90;;;;;;5121467;28;20707;-78
2022/02/17 13:11:02;;;;;;;3.03;1.23;;;13.60;99.90;;;;;;5120409;27;20515;-78
2022/02/17 13:13:27;;;;;;;1.90;1.10;;;14.50;99.90;;;;;;5122373;28;20254;-78
2022/02/17 13:15:53;;;;;;;5.97;1.67;;;14.40;99.90;;;;;;5123177;28;20179;-79
2022/02/17 13:18:20;;;;;;;5.17;1.33;;;14.50;99.90;;;;;;5122104;28;20181;-78
2022/02/17 13:20:46;;;;;;;4.17;1.00;;;13.80;99.90;;;;;;5121781;28;20200;-78
2022/02/17 13:23:23;;;;;;;4.40;1.40;;;13.70;99.90;;;;;;5123949;28;20177;-78
2022/02/17 13:25:49;;;;;;;3.77;1.23;;;13.50;99.90;;;;;;5123292;28;20626;-78
2022/02/17 13:28:14;;;;;;;4.47;1.20;;;13.70;99.90;;;;;;5125639;28;20176;-78
2022/02/17 13:30:44;;;;;;;2.30;0.97;;;13.20;99.90;;;;;;5122878;28;20238;-81
2022/02/17 13:33:09;;;;;;;5.27;1.40;;;13.10;99.90;;;;;;5123399;28;20172;-79
2022/02/17 13:35:47;;;;;;;3.77;1.13;;;13.00;99.90;;;;;;5120652;28;20224;-78
2022/02/17 13:38:13;;;;;;;3.77;1.47;;;14.20;99.90;;;;;;5121273;28;20250;-78
2022/02/17 13:40:50;;;;;;;3.63;1.30;;;13.60;99.90;;;;;;5120330;28;20204;-78
2022/02/17 13:43:17;;;;;;;1.37;0.87;;;12.70;99.90;;;;;;5122254;28;20177;-78
2022/02/17 13:45:45;;;;;;;3.93;1.50;;;12.10;99.90;;;;;;5120290;28;20633;-79
2022/02/17 13:48:37;;;;;;;3.07;1.27;;;12.30;99.90;;;;;;5122518;27;20326;-78
2022/02/17 13:51:11;;;;;;;4.10;1.50;;;13.10;99.90;;;;;;5118190;28;20198;-78
2022/02/17 13:53:48;;;;;;;2.67;1.10;;;14.20;99.90;;;;;;5119853;28;20195;-77
2022/02/17 13:56:17;;;;;;;3.53;1.20;;;13.90;99.90;;;;;;5120394;28;20159;-78
2022/02/17 13:58:45;;;;;;;5.57;1.40;;;12.90;99.90;;;;;;5118935;28;20206;-78
2022/02/17 14:01:11;;;;;;;5.03;1.27;;;11.80;99.90;;;;;;5117535;28;20233;-79
2022/02/17 14:03:44;;;;;;;2.67;1.23;;;11.80;99.90;;;;;;5117522;28;20178;-79
2022/02/17 14:06:20;;;;;;;3.33;1.33;;;12.30;99.90;;;;;;5116912;28;20155;-78
2022/02/17 14:08:47;;;;;;;3.37;1.37;;;12.80;99.90;;;;;;5116989;28;20540;-78
2022/02/17 14:11:13;;;;;;;3.93;1.23;;;13.40;99.90;;;;;;5116425;28;20176;-78
2022/02/17 14:13:40;;;;;;;5.50;1.43;;;14.40;98.70;;;;;;5119334;28;20180;-78
2022/02/17 14:16:07;;;;;;;4.23;1.20;;;14.80;97.60;;;;;;5117134;28;20183;-79
2022/02/17 14:18:33;;;;;;;7.60;1.33;;;15.40;96.10;;;;;;5121773;28;20192;-79
2022/02/17 14:21:00;;;;;;;4.43;1.20;;;15.00;96.30;;;;;;5121579;28;20632;-78
2022/02/17 14:23:26;;;;;;;3.40;1.10;;;13.70;96.40;;;;;;5122072;28;20171;-78
2022/02/17 14:25:52;;;;;;;4.10;1.60;;;13.00;97.80;;;;;;5120448;28;20174;-78
2022/02/17 14:28:19;;;;;;;3.47;1.37;;;12.70;99.90;;;;;;5121504;28;20251;-78
2022/02/17 14:30:46;;;;;;;3.20;1.03;;;12.20;99.90;;;;;;5120840;27;20191;-78
2022/02/17 14:33:15;;;;;;;6.50;1.50;;;11.90;99.90;;;;;;5129105;28;20188;-78
2022/02/17 14:35:42;;;;;;;3.33;1.13;;;11.80;99.90;;;;;;5120219;28;20167;-78
2022/02/17 14:38:08;;;;;;;4.90;1.27;;;11.60;99.90;;;;;;5119091;28;20177;-78
2022/02/17 14:40:43;;;;;;;3.47;1.10;;;11.30;99.90;;;;;;5120815;28;20622;-78
2022/02/17 14:43:11;;;;;;;2.93;1.10;;;11.00;99.90;;;;;;5120228;28;20158;-78
2022/02/17 14:45:38;;;;;;;2.90;1.30;;;11.00;99.90;;;;;;5120803;28;20168;-78
2022/02/17 14:48:04;;;;;;;2.53;1.03;;;10.70;99.90;;;;;;5119982;28;20170;-78
2022/02/17 14:50:30;;;;;;;4.73;1.40;;;10.70;99.90;;;;;;5118095;28;20687;-77
2022/02/17 14:52:57;;;;;;;2.87;1.00;;;10.60;99.90;;;;;;5118605;28;20176;-77
2022/02/17 14:55:23;;;;;;;1.83;0.93;;;10.60;99.90;;;;;;5120030;28;20175;-78
2022/02/17 14:57:49;;;;;;;4.40;1.00;;;10.60;99.90;;;;;;5118799;28;20182;-78
2022/02/17 15:00:16;;;;;;;1.90;0.97;;;10.60;99.90;;;;;;5119252;28;20268;-78
2022/02/17 15:02:42;;;;;;;2.77;1.00;;;10.50;99.90;;;;;;5118860;28;20664;-78
2022/02/17 15:05:08;;;;;;;4.37;1.30;;;10.40;99.90;;;;;;5118257;28;20175;-78
2022/02/17 15:07:35;;;;;;;2.07;1.03;;;10.40;99.90;;;;;;5120735;28;20547;-78
2022/02/17 15:10:02;;;;;;;5.43;1.00;;;10.50;99.90;;;;;;5118100;28;20208;-78
2022/02/17 15:12:27;;;;;;;5.43;1.50;;;10.50;99.90;;;;;;5119385;28;20172;-78
2022/02/17 15:14:53;;;;;;;3.77;1.17;;;10.50;99.90;;;;;;5117709;28;20171;-78
2022/02/17 15:17:19;;;;;;;5.13;1.40;;;10.60;99.90;;;;;;5118725;28;20237;-78
2022/02/17 15:22:29;;;;;;;4.57;1.37;;;10.60;99.90;;;;;;5120554;28;20628;-78
2022/02/17 15:24:54;;;;;;;4.43;0.90;;;10.60;99.90;;;;;;5120283;28;20172;-78
2022/02/17 15:27:20;;;;;;;6.87;1.90;;;10.50;99.90;;;;;;5117839;28;20175;-78
2022/02/17 15:29:46;;;;;;;5.30;1.50;;;10.40;99.90;;;;;;5116488;28;20191;-78
2022/02/17 15:32:13;;;;;;;2.10;1.30;;;10.30;99.90;;;;;;5122306;28;20640;-78
2022/02/17 15:34:38;;;;;;;2.27;1.10;;;10.30;99.90;;;;;;5118398;28;20194;-78
2022/02/17 15:37:04;;;;;;;4.97;1.33;;;10.20;99.90;;;;;;5118421;28;20205;-79
2022/02/17 15:39:30;;;;;;;3.47;1.47;;;10.10;99.90;;;;;;5119748;28;20729;-78
2022/02/17 15:42:01;;;;;;;2.47;1.27;;;10.00;99.90;;;;;;5119363;28;20174;-78
2022/02/17 15:44:29;;;;;;;3.90;1.30;;;9.80;99.90;;;;;;5116655;28;20198;-78
2022/02/17 15:46:55;;;;;;;2.13;0.90;;;9.60;99.90;;;;;;5119373;28;20170;-78
2022/02/17 15:49:20;;;;;;;3.20;1.10;;;9.40;99.90;;;;;;5118154;28;20289;-78
2022/02/17 15:51:46;;;;;;;0.80;0.80;;;9.40;99.90;;;;;;5117119;28;20260;-78
2022/02/17 15:54:12;;;;;;;2.37;0.80;;;9.30;99.90;;;;;;5119957;28;20188;-78
2022/02/17 15:56:37;;;;;;;2.47;1.03;;;9.20;99.90;;;;;;5117689;28;20176;-78
2022/02/17 15:59:03;;;;;;;1.70;0.67;;;9.20;99.90;;;;;;5119199;28;20286;-78
2022/02/17 16:01:29;;;;;;;2.87;1.10;;;9.20;99.90;;;;;;5119865;28;20171;-77
2022/02/17 16:03:54;;;;;;;1.53;1.10;;;9.10;99.90;;;;;;5118275;28;20214;-79
2022/02/17 16:06:20;;;;;;;2.87;1.47;;;9.10;99.90;;;;;;5116948;28;20177;-77
2022/02/17 16:08:46;;;;;;;2.57;1.40;;;9.10;99.90;;;;;;5117587;28;20181;-78
2022/02/17 16:11:12;;;;;;;1.57;1.03;;;9.10;99.90;;;;;;5132379;28;20182;-78
2022/02/17 16:13:38;;;;;;;2.57;1.33;;;9.10;99.90;;;;;;5132527;28;20651;-78
2022/02/17 16:16:04;;;;;;;5.00;1.40;;;9.10;99.90;;;;;;5133691;28;20174;-78
2022/02/17 16:18:29;;;;;;;2.70;1.00;;;9.00;99.90;;;;;;5118641;28;20590;-79
2022/02/17 16:20:56;;;;;;;2.60;1.37;;;9.00;99.90;;;;;;5119186;28;20241;-78
2022/02/17 16:23:22;;;;;;;1.43;0.87;;;9.00;99.90;;;;;;5120682;28;20171;-78
2022/02/17 16:25:48;;;;;;;6.40;2.37;;;9.00;99.90;;;;;;5122537;28;20178;-79
2022/02/17 16:28:13;;;;;;;2.07;1.20;;;8.90;99.90;;;;;;5121852;28;20172;-78
2022/02/17 16:30:39;;;;;;;3.27;1.17;;;8.90;99.90;;;;;;5122378;28;20193;-79
2022/02/17 16:33:05;;;;;;;6.80;2.13;;;8.90;99.90;;;;;;5122743;28;20177;-78
2022/02/17 16:35:31;;;;;;;3.00;1.73;;;8.90;99.90;;;;;;5121982;28;20198;-78
2022/02/17 16:37:56;;;;;;;4.07;1.27;;;8.80;99.90;;;;;;5121776;28;20538;-78
2022/02/17 16:40:22;;;;;;;2.30;1.20;;;8.80;99.90;;;;;;5121389;28;20213;-78
2022/02/17 16:42:49;;;;;;;4.43;1.50;;;8.80;99.90;;;;;;5120583;28;20635;-78
2022/02/17 16:45:21;;;;;;;3.50;1.83;;;8.80;99.90;;;;;;5121669;28;20208;-79
2022/02/17 16:47:49;;;;;;;3.63;1.50;;;8.80;99.90;;;;;;5123772;28;20186;-78
2022/02/17 16:50:16;;;;;;;3.33;1.70;;;8.80;99.90;;;;;;5122399;28;20196;-78
2022/02/17 16:52:41;;;;;;;3.57;1.80;;;8.80;99.90;;;;;;5120161;28;20698;-79
2022/02/17 16:55:07;;;;;;;6.30;2.10;;;8.80;99.90;;;;;;5118961;28;20203;-78
2022/02/17 16:57:33;;;;;;;3.40;1.57;;;8.80;99.90;;;;;;5119166;28;20206;-78
2022/02/17 16:59:59;;;;;;;3.47;2.10;;;8.70;99.90;;;;;;5120088;28;20676;-78
2022/02/17 17:02:25;;;;;;;5.13;1.40;;;8.70;99.90;;;;;;5121004;28;20172;-77
2022/02/17 17:04:50;;;;;;;7.00;1.90;;;8.80;99.90;;;;;;5121615;28;20172;-78
2022/02/17 17:07:16;;;;;;;6.20;1.67;;;8.80;99.90;;;;;;5121602;28;20198;-78
2022/02/17 17:09:42;;;;;;;6.43;1.73;;;8.80;99.90;;;;;;5120212;28;20201;-77
2022/02/17 17:12:08;;;;;;;5.33;1.60;;;8.80;99.90;;;;;;5119692;28;20239;-77
2022/02/17 17:14:33;;;;;;;2.83;1.57;;;8.80;99.90;;;;;;5119017;28;20190;-77
2022/02/17 17:16:59;;;;;;;3.53;1.70;;;8.80;99.90;;;;;;5120296;28;20177;-80
2022/02/17 17:19:25;;;;;;;7.50;1.90;;;8.80;99.90;;;;;;5119181;28;20214;-80
2022/02/17 17:21:51;;;;;;;6.40;1.90;;;8.70;99.90;;;;;;5118370;28;20173;-77
2022/02/17 17:24:16;;;;;;;5.80;2.33;;;8.70;99.90;;;;;;5126105;28;20177;-76
2022/02/17 17:26:42;;;;;;;8.40;2.80;;;8.70;99.90;;;;;;5122472;28;20185;-78
2022/02/17 17:29:08;;;;;;;7.10;2.43;;;8.60;99.90;;;;;;5118547;28;20760;-77
2022/02/17 17:31:34;;;;;;;6.03;2.07;;;8.50;99.90;;;;;;5118981;28;20184;-79
2022/02/17 17:34:00;;;;;;;15.23;3.70;;;8.50;99.90;;;;;;5122524;28;20173;-78
2022/02/17 17:36:26;;;;;;;11.20;3.27;;;8.50;99.90;;;;;;5126128;28;20631;-78
2022/02/17 17:38:52;;;;;;;6.37;2.47;;;8.50;99.90;;;;;;5125407;28;20265;-78
2022/02/17 17:41:18;;;;;;;8.27;2.40;;;8.50;99.90;;;;;;5122601;28;20182;-78
2022/02/17 17:43:44;;;;;;;5.20;2.20;;;8.40;99.90;;;;;;5121692;28;20197;-77
2022/02/17 17:46:10;;;;;;;8.03;2.00;;;8.40;99.90;;;;;;5121071;28;20254;-78
2022/02/17 17:48:37;;;;;;;5.77;2.30;;;8.40;99.90;;;;;;5124135;28;20205;-78
2022/02/17 17:51:03;;;;;;;4.00;1.50;;;8.30;99.90;;;;;;5124086;28;20169;-77
2022/02/17 17:53:31;;;;;;;6.10;2.80;;;8.30;99.90;;;;;;5121439;28;20204;-77
2022/02/17 17:55:56;;;;;;;5.73;2.10;;;8.30;99.90;;;;;;5117074;28;20187;-77
2022/02/17 17:58:23;;;;;;;5.23;1.80;;;8.30;99.90;;;;;;5117025;28;20252;-77
2022/02/17 18:00:51;;;;;;;4.77;1.57;;;8.20;99.90;;;;;;5123328;28;20198;-78
2022/02/17 18:03:17;;;;;;;8.53;4.57;;;8.20;99.90;;;;;;5117716;28;20181;-77
2022/02/17 18:05:44;;;;;;;16.33;8.03;;;8.20;99.90;;;;;;5118045;28;20684;-77
2022/02/17 18:08:10;;;;;;;6.87;1.83;;;8.10;99.90;;;;;;5128150;28;20170;-78
2022/02/17 18:10:37;;;;;;;4.13;1.70;;;8.10;99.90;;;;;;5133018;28;20658;-78
2022/02/17 18:13:03;;;;;;;4.47;2.17;;;8.00;99.90;;;;;;5120914;28;20189;-79
2022/02/17 18:15:31;;;;;;;6.23;2.00;;;8.00;99.90;;;;;;5122130;28;20233;-78
2022/02/17 18:17:57;;;;;;;6.30;2.80;;;8.00;99.90;;;;;;5121578;28;20182;-78
2022/02/17 18:20:23;;;;;;;7.73;2.47;;;8.00;99.90;;;;;;5120151;28;20244;-78
2022/02/17 18:22:49;;;;;;;8.13;3.53;;;8.10;99.90;;;;;;5119703;28;20233;-78
2022/02/17 18:25:19;;;;;;;9.00;2.57;;;8.00;99.90;;;;;;5119510;28;20172;-78
2022/02/17 18:27:48;;;;;;;6.07;3.30;;;8.00;99.90;;;;;;5120771;28;20595;-78
2022/02/17 18:30:15;;;;;;;6.97;2.53;;;8.00;99.90;;;;;;5122245;28;20577;-78
2022/02/17 18:32:42;;;;;;;5.47;2.40;;;8.00;99.90;;;;;;5122636;28;20260;-78
2022/02/17 18:35:07;;;;;;;8.43;2.37;;;7.90;99.90;;;;;;5120883;28;20203;-78
2022/02/17 18:37:34;;;;;;;10.13;2.37;;;7.90;99.90;;;;;;5119557;28;20182;-80
2022/02/17 18:40:00;;;;;;;11.60;2.63;;;7.80;99.90;;;;;;5122884;28;20201;-78
2022/02/17 18:42:26;;;;;;;4.80;2.07;;;7.80;99.90;;;;;;5121623;28;20185;-79
2022/02/17 18:47:37;;;;;;;7.17;2.60;;;7.70;99.90;;;;;;5125996;28;20837;-79
2022/02/17 18:50:04;;;;;;;6.80;1.93;;;7.70;99.90;;;;;;5126348;28;20199;-80
2022/02/17 18:52:30;;;;;;;11.07;2.40;;;7.70;99.90;;;;;;5123980;28;20184;-79
2022/02/17 18:54:56;;;;;;;6.93;2.57;;;7.60;99.90;;;;;;5124133;28;20707;-79
2022/02/17 18:57:22;;;;;;;7.67;2.50;;;7.60;99.90;;;;;;5124202;28;20177;-80
2022/02/17 18:59:48;;;;;;;8.13;2.90;;;7.60;99.90;;;;;;5123993;28;20296;-79
2022/02/17 19:02:14;;;;;;;11.63;5.17;;;7.60;99.90;;;;;;5121393;28;20518;-79
2022/02/17 19:04:40;;;;;;;11.47;4.40;;;7.50;99.90;;;;;;5121280;28;20173;-80
2022/02/17 19:07:06;;;;;;;13.77;4.87;;;7.40;99.90;;;;;;5123717;28;20172;-80
2022/02/17 19:09:32;;;;;;;11.43;3.47;;;7.50;99.90;;;;;;5126181;28;20196;-78
2022/02/17 19:11:58;;;;;;;10.33;3.30;;;7.40;99.90;;;;;;5131819;28;20252;-78
2022/02/17 19:14:24;;;;;;;11.67;3.17;;;7.40;99.90;;;;;;5130270;28;20188;-79
2022/02/17 19:16:50;;;;;;;6.83;3.27;;;7.40;99.90;;;;;;5126718;28;20171;-79
2022/02/17 19:19:16;;;;;;;13.33;3.13;;;7.40;99.90;;;;;;5127092;28;20215;-79
2022/02/17 19:21:43;;;;;;;10.47;2.43;;;7.40;99.90;;;;;;5130978;28;20187;-79
2022/02/17 19:24:10;;;;;;;6.87;2.87;;;7.40;99.90;;;;;;5126054;28;20177;-78
2022/02/17 19:26:36;;;;;;;9.77;2.10;;;7.30;99.90;;;;;;5128847;28;20180;-79
2022/02/17 19:29:07;;;;;;;13.87;2.80;;;7.30;99.90;;;;;;5128988;28;20220;-79
2022/02/17 19:31:36;;;;;;;6.87;2.10;;;7.20;99.90;;;;;;5128802;28;20177;-79
2022/02/17 19:34:03;;;;;;;8.37;2.30;;;7.20;99.90;;;;;;5130001;28;20248;-78
2022/02/17 19:36:29;;;;;;;7.27;3.40;;;7.20;99.90;;;;;;5126204;28;20292;-79
2022/02/17 19:38:55;;;;;;;7.77;2.47;;;7.20;99.90;;;;;;5125729;28;20223;-78
2022/02/17 19:41:21;;;;;;;5.47;2.23;;;7.20;99.90;;;;;;5128576;28;20168;-78
2022/02/17 19:43:48;;;;;;;7.70;2.53;;;7.20;99.90;;;;;;5126076;28;20184;-79
2022/02/17 19:46:14;;;;;;;12.60;2.57;;;7.20;99.90;;;;;;5127997;28;20181;-79
2022/02/17 19:48:40;;;;;;;10.77;2.37;;;7.20;99.90;;;;;;5125998;28;20180;-79
2022/02/17 19:51:06;;;;;;;6.17;2.47;;;7.20;99.90;;;;;;5130756;28;20184;-79
2022/02/17 19:53:32;;;;;;;10.30;3.13;;;7.20;99.90;;;;;;5128709;28;20201;-79
2022/02/17 19:55:59;;;;;;;5.97;2.10;;;7.20;99.90;;;;;;5126840;28;20177;-79
2022/02/17 19:58:27;;;;;;;8.33;2.60;;;7.20;99.90;;;;;;5126853;28;20191;-79
2022/02/17 20:00:53;;;;;;;7.00;2.30;;;7.20;99.90;;;;;;5125108;28;20672;-79
2022/02/17 20:03:19;;;;;;;9.40;3.83;;;7.20;99.90;;;;;;5125401;28;20718;-79
2022/02/17 20:05:45;;;;;;;12.57;3.80;;;7.20;99.90;;;;;;5124155;28;20552;-79
2022/02/17 20:08:11;;;;;;;9.63;2.17;;;7.20;99.90;;;;;;5121644;28;20169;-79
2022/02/17 20:10:37;;;;;;;6.93;2.23;;;7.20;99.90;;;;;;5118604;28;20212;-78
2022/02/17 20:13:03;;;;;;;10.50;2.77;;;7.20;99.90;;;;;;5126784;28;20173;-79
2022/02/17 20:15:29;;;;;;;8.60;2.40;;;7.20;99.90;;;;;;5134695;28;20197;-78
2022/02/17 20:17:56;;;;;;;9.43;2.97;;;7.20;99.90;;;;;;5129094;28;20172;-79
2022/02/17 20:20:22;;;;;;;6.20;2.43;;;7.20;99.90;;;;;;5130644;28;20267;-78
2022/02/17 20:22:47;;;;;;;8.67;3.03;;;7.20;99.90;;;;;;5136049;28;20174;-79
2022/02/17 20:25:15;;;;;;;6.67;3.00;;;7.20;99.90;;;;;;5132233;28;20174;-79
2022/02/17 20:27:42;;;;;;;11.53;2.73;;;7.20;99.90;;;;;;5132146;28;20197;-78
2022/02/17 20:30:10;;;;;;;14.10;3.10;;;7.20;99.90;;;;;;5133833;28;20202;-78
2022/02/17 20:32:36;;;;;;;14.07;3.13;;;7.20;99.90;;;;;;5132107;28;20549;-79
2022/02/17 20:35:03;;;;;;;11.30;2.80;;;7.20;99.90;;;;;;5126527;28;20650;-81
2022/02/17 20:37:31;;;;;;;13.60;3.60;;;7.10;99.90;;;;;;5120619;28;20183;-79
2022/02/17 20:39:57;;;;;;;9.93;2.60;;;7.20;99.90;;;;;;5119115;28;20210;-80
2022/02/17 20:42:23;;;;;;;11.87;2.80;;;7.20;99.90;;;;;;5118686;28;20213;-80
2022/02/17 20:53:02;;;;;;;16.43;3.13;;;7.10;99.90;;;;;;5120100;28;20235;-79
2022/02/17 20:56:24;;;;;;;10.33;2.97;;;7.10;99.90;;;;;;5122918;28;20633;-79
2022/02/17 20:58:14;;;;;;;12.43;2.77;;;7.20;99.90;;;;;;5123911;28;20184;-80
2022/02/17 21:00:39;;;;;;;14.33;2.57;;;7.20;99.90;;;;;;5120458;28;20234;-78
2022/02/17 21:03:05;;;;;;;7.90;2.67;;;7.20;99.90;;;;;;5119516;28;20196;-79
2022/02/17 21:05:30;;;;;;;7.47;2.37;;;7.20;99.90;;;;;;5120701;28;20172;-80
2022/02/17 21:07:56;;;;;;;9.73;2.30;;;7.20;99.90;;;;;;5122062;28;20171;-79